Date,TemperatureHighF,TemperatureAvgF,TemperatureLowF,DewpointHighF,DewpointAvgF,DewpointLowF,HumidityHigh,HumidityAvg,HumidityLow,PressureMaxIn,PressureMinIn,WindSpeedMaxMPH,WindSpeedAvgMPH,GustSpeedMaxMPH,PrecipitationSumIn
2013-1-1,38,31,22,29,21,11,84,67,50,29.83,29.65,8,2,0,0.05
2013-1-2,32,22,11,15,9,3,80,60,46,29.99,29.81,7,1,0,0.04
2013-1-3,25,16,6,11,0,-6,77,51,30,30.05,29.93,8,1,0,0.00
2013-1-4,39,29,16,24,19,11,82,68,45,29.92,29.74,5,1,0,0.06
2013-1-5,43,32,22,24,20,18,84,63,41,30.17,29.78,6,1,0,0.02
2013-1-6,42,32,23,34,27,19,97,83,63,30.14,29.84,5,0,0,0.03
2013-1-7,42,31,24,32,26,22,97,83,49,30.32,29.88,6,1,0,0.01
2013-1-8,48,35,21,32,28,19,96,77,50,30.29,30.19,8,1,0,0.00
2013-1-9,44,35,22,38,31,21,98,84,65,30.31,29.91,7,0,0,0.01
2013-1-10,47,40,28,32,24,21,77,55,37,30.44,29.98,9,2,0,0.00
2013-1-11,41,34,24,38,28,20,97,80,66,30.43,30.13,6,1,0,0.11
2013-1-12,46,42,38,46,42,38,100,99,97,30.14,30.03,6,1,0,0.06
2013-1-13,53,47,43,53,47,43,100,100,98,30.07,29.93,5,0,0,0.02
2013-1-14,62,52,40,56,46,31,100,82,45,30.16,29.85,7,1,0,0.04
2013-1-15,42,38,35,38,33,27,98,83,62,30.21,30.13,4,0,0,0.12
2013-1-16,36,34,33,35,32,27,100,95,70,30.15,29.70,6,0,0,0.22
2013-1-17,43,36,31,38,30,19,100,80,57,29.99,29.77,6,0,0,0.34
2013-1-18,32,24,17,19,2,-7,64,41,26,30.39,29.94,10,2,0,0.00
2013-1-19,46,36,18,34,25,7,77,66,51,30.33,29.86,11,2,0,0.05
2013-1-20,55,45,29,37,28,9,75,55,33,29.84,29.46,9,2,0,0.00
2013-1-21,30,26,21,23,11,4,91,55,33,30.02,29.69,4,0,0,0.00
2013-1-22,27,21,11,23,9,-4,93,63,31,29.99,29.66,10,1,0,0.10
2013-1-23,18,11,6,1,-6,-9,68,48,35,30.06,29.98,10,1,0,0.00
2013-1-24,20,11,1,-4,-8,-12,63,43,27,30.13,29.96,9,2,0,0.00
2013-1-25,27,17,5,13,-4,-10,82,42,22,30.21,29.96,6,0,0,0.00
2013-1-26,26,18,9,14,4,-10,86,58,29,30.14,29.90,9,2,0,0.00
2013-1-27,31,20,12,4,0,-4,65,44,27,30.37,30.14,8,2,0,0.00
2013-1-28,33,24,12,30,14,0,98,70,28,30.36,29.90,6,0,0,0.00
2013-1-29,35,32,29,34,31,28,100,97,93,30.10,29.90,2,0,0,0.07
2013-1-30,60,50,34,58,49,34,100,96,87,30.07,29.43,12,3,0,0.05
2013-1-31,61,49,31,59,38,13,100,69,37,29.52,28.94,13,4,0,0.61
2013-2-1,34,29,22,16,9,3,57,44,28,30.00,29.53,8,2,0,0.00
2013-2-2,31,25,16,16,8,2,63,50,33,30.17,29.96,8,1,0,0.00
2013-2-3,31,26,20,24,20,15,91,80,63,29.97,29.64,6,1,0,0.01
2013-2-4,32,25,17,21,12,4,90,62,34,29.87,29.63,8,1,0,0.01
2013-2-5,26,24,21,24,16,9,92,70,56,29.94,29.84,5,1,0,0.00
2013-2-6,41,31,26,30,21,5,96,70,41,30.19,29.82,6,1,0,0.04
2013-2-7,31,24,16,14,5,-1,70,46,27,30.43,30.20,7,1,0,0.00
2013-2-8,33,31,23,33,27,14,100,87,67,30.38,29.48,25,6,0,0.11
2013-2-9,29,18,13,29,14,8,100,86,80,30.08,29.34,0,0,0,0.12
2013-2-10,33,20,6,31,16,2,96,84,68,30.30,30.09,0,0,0,0.29
2013-2-11,45,33,13,45,32,11,100,97,89,30.27,29.51,7,1,0,0.58
2013-2-12,45,38,30,42,31,24,100,80,49,29.80,29.52,6,1,0,0.00
2013-2-13,45,34,25,26,24,20,87,68,44,29.79,29.59,5,0,0,0.00
2013-2-14,46,35,28,30,25,17,97,71,35,29.93,29.61,9,1,0,0.10
2013-2-15,49,38,27,39,32,25,99,82,45,29.94,29.84,7,1,0,0.00
2013-2-16,37,34,31,37,33,29,100,94,76,29.86,29.57,7,1,0,0.04
2013-2-17,31,22,18,28,15,3,92,74,49,29.58,29.27,14,4,0,0.00
2013-2-18,33,23,15,7,2,-2,58,42,24,30.08,29.59,10,2,0,0.04
2013-2-19,49,37,19,44,26,1,100,68,44,30.09,29.50,7,1,0,0.56
2013-2-20,43,34,26,43,22,9,100,65,36,29.70,29.46,8,2,0,0.00
2013-2-21,35,29,25,16,14,11,65,53,39,30.05,29.70,9,2,0,0.00
2013-2-22,38,32,26,26,22,15,80,66,55,30.27,30.07,7,2,0,0.00
2013-2-23,39,35,31,37,29,26,99,81,65,30.24,29.78,8,2,0,0.34
2013-2-24,41,37,31,41,36,31,100,99,96,29.79,29.55,12,3,0,1.08
2013-2-25,42,34,29,32,30,25,99,84,54,30.16,29.79,6,1,0,0.13
2013-2-26,44,36,26,34,28,23,97,75,46,30.24,30.05,9,2,0,0.00
2013-2-27,44,42,38,44,41,34,100,96,83,30.05,29.46,16,5,0,1.37
2013-2-28,48,39,35,41,37,35,100,92,69,29.56,29.43,2,0,0,0.00
2013-3-1,42,38,35,37,31,27,99,77,57,29.58,29.43,5,1,0,0.00
2013-3-2,46,38,32,31,28,25,79,66,49,29.59,29.53,5,1,0,0.00
2013-3-3,44,37,32,31,28,25,94,69,49,29.55,29.46,5,1,0,0.00
2013-3-4,42,35,29,31,24,21,94,65,45,29.63,29.48,8,2,0,0.01
2013-3-5,43,36,29,32,27,22,96,70,57,29.97,29.63,9,2,0,0.00
2013-3-6,42,37,32,37,34,30,98,87,69,29.99,29.90,19,6,0,0.25
2013-3-7,36,34,33,34,33,32,99,95,84,29.89,29.84,16,7,0,1.89
2013-3-8,39,34,32,35,32,27,100,95,64,30.01,29.79,12,3,0,0.32
2013-3-9,39,35,28,30,28,27,97,76,65,30.25,30.00,16,4,0,0.89
2013-3-10,42,35,28,35,30,27,99,85,66,30.31,30.24,6,1,0,0.05
2013-3-11,50,40,32,40,36,30,96,86,66,30.25,30.08,5,1,0,0.00
2013-3-12,55,50,41,54,48,40,100,95,81,30.09,29.66,14,3,0,0.71
2013-3-13,55,45,30,53,37,20,100,76,37,29.70,29.60,5,1,0,0.01
2013-3-14,41,31,24,25,14,4,87,51,35,29.75,29.62,7,2,0,0.00
2013-3-15,43,32,21,26,12,4,77,46,21,29.79,29.56,6,2,0,0.00
2013-3-16,41,34,27,26,17,5,80,52,22,29.77,29.60,7,1,0,0.00
2013-3-17,41,32,22,22,13,0,81,50,23,30.21,29.77,9,1,0,0.00
2013-3-18,40,29,18,26,10,-2,86,47,28,30.37,30.16,7,2,0,0.00
2013-3-19,39,34,29,39,34,26,100,97,87,30.16,29.44,15,5,0,1.14
2013-3-20,42,33,26,30,22,18,96,66,39,29.73,29.59,9,2,0,0.01
2013-3-21,38,31,24,29,25,20,97,81,51,29.74,29.51,7,1,0,0.00
2013-3-22,42,34,25,29,23,16,97,68,36,29.66,29.51,7,1,0,0.23
2013-3-23,46,36,27,24,20,16,81,55,31,29.70,29.55,8,2,0,0.00
2013-3-24,50,38,27,26,22,18,81,57,33,29.73,29.63,6,1,0,0.00
2013-3-25,45,37,29,35,29,25,89,73,47,29.67,29.40,16,4,0,0.03
2013-3-26,52,41,32,33,26,21,92,60,31,29.68,29.39,10,2,0,0.04
2013-3-27,57,41,25,31,23,19,83,53,27,29.76,29.64,8,2,0,0.00
2013-3-28,49,42,37,37,33,25,96,72,42,29.93,29.76,11,2,0,0.03
2013-3-29,58,45,29,36,32,24,96,62,28,29.95,29.87,6,1,0,0.00
2013-3-30,59,46,32,33,28,17,89,54,20,30.00,29.91,6,1,0,0.00
2013-3-31,61,44,26,44,29,21,94,62,22,30.04,29.68,11,2,0,0.08
2013-4-1,62,49,35,47,40,14,100,75,39,29.71,29.44,10,3,0,0.05
2013-4-2,44,35,26,19,13,5,66,42,22,29.88,29.71,7,2,0,0.00
2013-4-3,48,37,29,16,12,8,55,38,20,30.07,29.85,11,2,0,0.00
2013-4-4,54,40,27,32,19,11,78,46,19,30.21,30.00,6,1,0,0.00
2013-4-5,59,47,38,39,30,18,79,55,22,29.99,29.54,6,1,0,0.00
2013-4-6,48,40,30,26,12,1,73,37,16,30.25,29.77,9,2,0,0.00
2013-4-7,54,43,24,42,30,17,91,65,24,30.25,29.95,14,2,0,0.00
2013-4-8,68,54,44,46,42,36,97,66,32,30.03,29.88,8,2,0,0.00
2013-4-9,77,57,46,53,45,37,98,69,27,30.01,29.75,10,2,0,0.00
2013-4-10,63,49,44,47,44,42,98,83,56,29.92,29.78,9,2,0,0.24
2013-4-11,53,47,44,47,40,32,100,78,57,30.03,29.73,8,2,0,0.01
2013-4-12,44,41,38,39,35,29,98,81,61,30.06,29.65,13,5,0,0.59
2013-4-13,53,43,38,41,38,36,98,84,56,29.85,29.63,7,2,0,0.04
2013-4-14,56,45,35,43,33,24,99,69,36,30.11,29.84,9,1,0,0.00
2013-4-15,58,45,30,36,32,26,91,64,35,30.32,30.12,8,1,0,0.00
2013-4-16,62,50,34,48,40,33,98,73,39,30.32,30.02,19,2,0,0.00
2013-4-17,69,58,42,52,42,29,93,61,23,30.23,29.99,5,1,0,0.00
2013-4-18,64,50,35,46,35,25,97,61,27,30.33,30.08,10,2,0,0.00
2013-4-19,72,63,52,65,59,47,100,89,68,30.07,29.63,9,3,0,0.09
2013-4-20,65,55,45,64,45,26,100,74,41,30.10,29.56,7,2,0,0.57
2013-4-21,53,43,33,28,23,19,80,48,28,30.59,30.12,8,2,0,0.00
2013-4-22,50,41,28,36,30,24,94,67,38,30.64,30.48,20,4,0,0.00
2013-4-23,43,42,40,43,40,32,99,93,72,30.48,29.98,16,5,0,0.39
2013-4-24,70,52,43,52,45,42,98,82,48,29.97,29.75,16,3,0,0.02
2013-4-25,66,54,40,52,41,26,97,67,23,30.16,29.79,7,2,0,0.09
2013-4-26,60,48,35,42,38,33,97,72,43,30.33,30.16,9,3,0,0.00
2013-4-27,64,49,36,45,35,29,100,64,31,30.33,30.22,5,1,0,0.00
2013-4-28,68,52,35,44,35,26,93,57,25,30.26,30.16,10,1,0,0.00
2013-4-29,67,53,42,50,35,15,98,58,18,30.20,30.13,8,1,0,0.00
2013-4-30,68,52,34,41,29,16,92,50,14,30.28,30.17,8,1,0,0.00
2013-5-1,66,51,33,45,35,29,90,59,28,30.38,30.28,10,2,0,0.00
2013-5-2,76,54,38,48,40,33,97,68,25,30.38,30.26,10,2,0,0.00
2013-5-3,55,47,38,45,40,37,98,79,63,30.41,30.28,14,3,0,0.00
2013-5-4,55,45,32,46,37,32,100,77,51,30.27,30.22,10,3,0,0.00
2013-5-5,57,46,31,45,38,31,99,77,53,30.23,30.16,11,2,0,0.00
2013-5-6,72,53,37,51,45,36,100,78,45,30.20,30.07,8,1,0,0.00
2013-5-7,77,61,45,59,52,45,100,78,48,30.10,30.02,11,1,0,0.00
2013-5-8,74,63,52,64,58,52,100,85,60,30.10,29.96,12,3,0,0.18
2013-5-9,67,61,57,62,60,57,100,95,79,29.95,29.79,7,1,0,0.26
2013-5-10,81,66,56,61,56,51,100,73,35,29.87,29.80,6,1,0,0.00
2013-5-11,72,62,57,62,59,53,100,91,65,29.85,29.63,8,1,0,0.16
2013-5-12,73,61,46,64,54,34,100,80,47,29.74,29.48,5,1,0,0.05
2013-5-13,63,51,37,39,33,26,88,53,26,29.93,29.74,5,1,0,0.00
2013-5-14,59,49,35,37,32,26,92,54,28,29.96,29.88,14,1,0,0.00
2013-5-15,66,51,35,54,40,29,94,70,27,29.97,29.60,9,2,0,0.03
2013-5-16,83,65,48,56,48,35,100,61,18,29.70,29.56,5,1,0,0.00
2013-5-17,69,58,45,49,43,36,93,61,31,30.13,29.71,8,1,0,0.00
2013-5-18,73,58,41,50,45,36,99,69,27,30.22,30.14,8,1,0,0.00
2013-5-19,73,59,46,55,50,45,100,75,40,30.26,30.14,4,1,0,0.08
2013-5-20,83,68,55,68,62,55,100,85,50,30.14,29.82,4,0,0,0.03
2013-5-21,87,65,52,69,60,53,100,87,51,29.89,29.75,11,1,0,0.24
2013-5-22,70,59,51,64,56,51,100,92,76,29.92,29.80,8,1,0,0.03
2013-5-23,74,66,61,68,65,61,100,94,80,29.84,29.75,7,2,0,0.04
2013-5-24,68,63,52,66,62,52,100,98,91,29.75,29.58,12,1,0,0.61
2013-5-25,54,50,42,53,49,42,100,96,86,29.69,29.60,10,2,0,0.38
2013-5-26,59,49,40,44,41,36,100,77,42,30.01,29.64,7,2,0,0.02
2013-5-27,73,57,39,48,40,32,100,60,24,30.08,29.98,7,1,0,0.00
2013-5-28,75,60,41,56,46,40,99,66,31,30.14,30.08,10,1,0,0.00
2013-5-29,75,64,58,67,61,56,100,92,72,30.12,29.91,6,1,0,0.91
2013-5-30,88,75,62,72,67,62,100,80,50,30.00,29.91,5,0,0,0.08
2013-5-31,92,78,62,74,66,61,100,70,40,30.00,29.87,8,0,0,0.00
2013-6-1,88,76,64,70,65,61,96,72,46,29.91,29.80,8,1,0,0.00
2013-6-2,84,73,64,68,64,62,94,76,51,29.83,29.71,8,1,0,0.00
2013-6-3,71,66,63,70,66,62,100,97,89,29.77,29.69,5,0,0,0.74
2013-6-4,72,62,50,63,47,42,100,62,36,29.99,29.72,6,1,0,0.00
2013-6-5,75,61,45,53,48,43,100,68,34,30.10,30.00,5,0,0,0.00
2013-6-6,73,62,51,59,52,44,99,72,39,30.11,30.01,9,1,0,0.00
2013-6-7,60,57,55,60,56,52,100,96,80,30.02,29.70,8,2,0,2.69
2013-6-8,77,64,56,67,60,56,100,89,64,29.91,29.48,9,1,0,1.06
2013-6-9,80,68,55,63,58,53,100,73,39,30.08,29.91,6,0,0,0.00
2013-6-10,72,62,55,62,59,55,100,89,58,30.11,29.93,7,1,0,0.75
2013-6-11,72,62,54,67,61,54,100,97,76,29.92,29.46,9,2,0,1.14
2013-6-12,72,62,53,62,56,52,100,83,51,29.72,29.47,9,2,0,0.01
2013-6-13,66,57,50,60,55,50,100,93,70,29.74,29.55,9,1,0,0.34
2013-6-14,68,59,53,58,53,47,99,83,55,29.66,29.51,10,3,0,1.33
2013-6-15,79,63,52,58,44,-100,100,63,25,29.86,29.66,6,-34,0,0.00
2013-6-16,78,65,51,63,57,51,100,76,44,29.86,29.65,5,1,0,0.00
2013-6-17,85,70,58,67,63,58,100,79,47,29.83,29.69,8,1,0,0.04
2013-6-18,79,64,58,67,60,56,100,88,56,29.86,29.77,8,2,0,0.08
2013-6-19,74,64,55,58,52,44,99,70,37,30.06,29.79,6,2,0,0.03
2013-6-20,80,65,50,59,53,46,100,70,31,30.18,30.06,4,0,0,0.00
2013-6-21,82,68,55,65,59,53,96,74,53,30.19,30.11,8,1,0,0.00
2013-6-22,82,69,58,64,59,54,95,71,45,30.15,30.05,5,0,0,0.00
2013-6-23,86,74,64,71,66,62,96,78,55,30.09,29.94,4,1,0,0.00
2013-6-24,93,80,69,76,71,66,100,76,48,29.95,29.78,4,0,0,0.00
2013-6-25,92,78,67,71,68,66,97,75,46,29.84,29.65,7,0,0,0.00
2013-6-26,90,76,68,74,70,67,99,82,49,29.76,29.64,6,0,0,0.01
2013-6-27,70,66,64,68,66,64,100,98,90,29.77,29.66,6,1,0,0.06
2013-6-28,76,70,65,73,70,65,100,98,86,29.66,29.44,9,1,0,1.03
2013-6-29,80,73,70,72,70,67,100,91,69,29.66,29.44,6,1,0,0.01
2013-6-30,79,73,70,72,70,68,100,91,74,29.86,29.65,4,0,0,0.21
2013-7-1,80,73,71,75,72,71,100,97,82,30.01,29.86,5,1,0,0.19
2013-7-2,82,75,72,75,73,71,100,92,76,30.11,30.01,5,1,0,0.00
2013-7-3,87,77,70,76,72,70,100,86,65,30.13,30.06,4,0,0,0.01
2013-7-4,90,80,72,77,74,72,100,82,60,30.12,30.02,4,0,0,0.00
2013-7-5,92,82,72,77,74,71,97,78,55,30.08,29.96,3,0,0,0.00
2013-7-6,92,81,72,77,73,70,99,78,50,30.00,29.88,5,0,0,0.00
2013-7-7,94,79,70,76,73,70,100,85,49,29.93,29.81,6,0,0,0.75
2013-7-8,89,77,68,77,72,67,100,86,61,29.96,29.83,7,1,0,0.00
2013-7-9,75,70,66,69,67,66,100,92,80,30.01,29.94,6,1,0,0.00
2013-7-10,84,75,68,78,72,68,100,92,71,29.98,29.73,6,1,0,0.19
2013-7-11,79,74,70,75,73,69,100,96,84,29.81,29.70,5,0,0,0.90
2013-7-12,74,70,66,71,65,61,100,85,70,30.09,29.82,9,2,0,0.00
2013-7-13,80,70,65,72,69,65,100,95,74,30.21,30.09,5,1,0,0.44
2013-7-14,89,78,71,78,74,71,100,86,59,30.21,30.10,4,0,0,0.00
2013-7-15,92,81,71,77,72,69,100,79,50,30.11,30.01,5,0,0,0.00
2013-7-16,93,80,69,73,70,66,100,76,43,30.07,30.01,7,1,0,0.05
2013-7-17,91,78,68,76,71,68,100,80,55,30.09,29.94,8,0,0,0.00
2013-7-18,91,81,73,77,72,69,94,76,54,29.93,29.86,9,1,0,0.00
2013-7-19,95,83,74,80,76,73,100,80,51,29.86,29.66,9,1,0,0.00
2013-7-20,91,81,72,78,76,72,100,84,57,29.70,29.56,8,1,0,0.22
2013-7-21,82,75,68,73,68,62,100,82,51,29.90,29.71,5,1,0,0.01
2013-7-22,82,74,66,71,68,66,100,84,59,29.91,29.80,6,2,0,0.00
2013-7-23,83,75,70,78,73,69,100,94,74,29.79,29.45,6,1,0,0.28
2013-7-24,86,77,70,75,70,57,100,79,59,29.83,29.49,8,1,0,0.01
2013-7-25,71,64,61,61,58,53,97,82,62,29.98,29.83,11,3,0,0.08
2013-7-26,69,65,62,68,64,61,100,98,94,29.94,29.83,7,2,0,0.63
2013-7-27,83,71,61,73,65,61,100,84,50,29.98,29.92,4,0,0,0.01
2013-7-28,78,72,68,72,70,67,100,93,76,29.92,29.87,6,1,0,0.12
2013-7-29,82,73,66,74,70,66,100,91,71,29.95,29.89,5,0,0,0.04
2013-7-30,83,72,61,70,62,55,100,74,40,30.00,29.94,9,0,0,0.00
2013-7-31,83,70,59,64,61,58,100,76,46,30.05,29.96,6,1,0,0.00
2013-8-1,80,70,61,69,63,60,100,82,51,29.97,29.81,7,1,0,0.06
2013-8-2,83,71,63,73,66,62,100,85,52,29.80,29.71,4,0,0,0.32
2013-8-3,75,70,66,67,66,63,100,87,73,29.79,29.70,5,0,0,0.00
2013-8-4,81,68,56,64,60,55,100,78,43,29.79,29.68,2,0,0,0.01
2013-8-5,76,64,53,58,52,40,100,70,30,29.95,29.80,5,1,0,0.00
2013-8-6,79,64,48,57,52,48,100,69,36,30.07,29.95,5,0,0,0.00
2013-8-7,78,66,53,68,56,51,100,74,41,30.11,30.05,7,1,0,0.00
2013-8-8,80,71,62,70,66,54,96,84,69,30.06,29.94,5,1,0,0.05
2013-8-9,74,73,72,74,72,70,100,97,90,29.97,29.69,9,1,0,1.10
2013-8-10,83,74,60,73,65,57,100,77,50,29.92,29.71,5,0,0,0.00
2013-8-11,80,67,53,60,56,51,100,72,39,30.00,29.92,2,0,0,0.00
2013-8-12,82,69,59,67,62,59,100,81,49,29.95,29.84,5,0,0,0.00
2013-8-13,72,67,61,70,65,61,100,93,76,29.85,29.61,5,0,0,0.01
2013-8-14,75,66,58,64,57,52,100,75,48,29.87,29.58,6,1,0,0.01
2013-8-15,78,64,51,58,54,47,100,72,36,30.03,29.88,4,0,0,0.00
2013-8-16,80,66,53,60,56,51,100,74,38,30.11,30.03,4,0,0,0.00
2013-8-17,80,67,54,61,58,54,100,74,45,30.19,30.11,7,1,0,0.00
2013-8-18,79,67,56,65,60,54,100,82,43,30.19,30.01,5,0,0,0.01
2013-8-19,82,68,55,66,61,55,100,80,46,30.01,29.87,5,0,0,0.01
2013-8-20,86,73,62,67,63,58,99,74,45,30.00,29.89,1,0,0,0.00
2013-8-21,88,74,61,69,65,61,100,77,43,30.06,29.95,5,0,0,0.00
2013-8-22,85,72,63,73,69,63,100,90,66,29.96,29.76,6,0,0,0.06
2013-8-23,78,70,58,70,60,51,100,74,40,30.00,29.73,7,1,0,0.00
2013-8-24,74,64,51,57,48,37,97,62,27,30.25,30.01,8,1,0,0.00
2013-8-25,83,65,49,59,53,48,100,70,30,30.28,30.12,6,0,0,0.00
2013-8-26,80,70,61,67,63,56,90,79,58,30.12,29.80,4,0,0,0.00
2013-8-27,78,71,64,71,68,64,100,92,65,29.80,29.74,5,0,0,0.52
2013-8-28,82,69,62,72,65,62,100,88,60,29.88,29.77,6,1,0,0.00
2013-8-29,66,64,59,66,63,58,100,97,90,29.97,29.86,6,1,0,0.03
2013-8-30,78,67,58,69,64,58,100,90,69,29.94,29.76,2,0,0,0.00
2013-8-31,80,73,67,74,70,67,100,92,79,29.77,29.72,6,0,0,0.00
2013-9-1,79,73,70,76,72,70,100,96,86,29.81,29.73,5,0,0,0.13
2013-9-2,81,74,72,76,73,71,100,97,79,29.79,29.63,9,1,0,0.23
2013-9-3,81,72,65,73,70,65,100,94,69,29.73,29.60,2,0,0,0.04
2013-9-4,80,68,57,65,60,55,100,79,44,29.84,29.72,6,0,0,0.00
2013-9-5,70,61,50,65,58,50,100,90,69,30.04,29.79,9,1,0,0.05
2013-9-6,68,56,44,51,47,40,100,76,35,30.15,30.03,6,0,0,0.00
2013-9-7,77,61,45,58,52,45,100,76,43,30.02,29.80,7,0,0,0.00
2013-9-8,76,65,49,64,54,39,97,70,35,30.00,29.66,12,1,0,0.00
2013-9-9,69,56,40,53,47,40,99,75,44,30.16,30.00,6,0,0,0.00
2013-9-10,75,66,54,69,62,52,96,87,76,30.09,29.96,8,1,0,0.00
2013-9-11,92,78,68,77,72,68,100,83,57,30.00,29.88,5,0,0,0.00
2013-9-12,83,74,69,73,70,69,99,87,68,29.90,29.61,7,1,0,0.01
2013-9-13,80,69,59,70,67,58,100,92,64,29.65,29.48,10,0,0,0.29
2013-9-14,68,61,53,59,55,52,98,83,62,29.97,29.66,4,0,0,0.00
2013-9-15,71,58,46,56,52,46,100,82,51,30.08,29.97,4,0,0,0.00
2013-9-16,65,57,51,60,54,39,100,89,63,30.13,29.94,4,0,0,0.03
2013-9-17,60,50,42,44,39,33,97,68,39,30.32,30.14,8,2,0,0.00
2013-9-18,73,55,38,50,45,38,100,74,32,30.25,30.07,4,0,0,0.00
2013-9-19,79,61,45,57,51,45,100,76,36,30.07,29.95,2,0,0,0.00
2013-9-20,81,62,48,59,53,48,100,76,35,30.00,29.91,5,0,0,0.00
2013-9-21,74,66,54,66,61,54,100,86,64,29.95,29.66,8,2,0,0.00
2013-9-22,72,65,50,68,60,48,100,85,60,29.73,29.55,8,1,0,0.45
2013-9-23,64,53,43,49,44,41,98,75,46,29.91,29.73,8,1,0,0.01
2013-9-24,65,52,39,49,43,39,100,75,42,29.91,29.73,7,1,0,0.00
2013-9-25,66,54,42,51,47,42,100,79,52,29.89,29.80,7,1,0,0.00
2013-9-26,64,56,51,51,49,45,96,77,54,30.02,29.88,9,1,0,0.00
2013-9-27,64,57,46,53,50,45,98,81,57,30.17,30.02,7,1,0,0.00
2013-9-28,72,56,42,56,50,42,100,82,46,30.23,30.16,8,1,0,0.00
2013-9-29,67,54,42,58,48,42,100,84,46,30.17,30.02,7,1,0,0.00
2013-9-30,67,57,45,57,52,44,100,86,59,30.02,29.88,6,1,0,0.00
2013-10-1,76,58,41,55,49,41,100,76,39,29.88,29.76,6,1,0,0.00
2013-10-2,81,65,51,62,57,51,100,80,49,29.86,29.74,5,0,0,0.00
2013-10-3,79,63,49,57,52,43,100,74,29,29.99,29.87,1,0,0,0.00
2013-10-4,65,56,47,59,54,47,100,95,68,30.00,29.94,3,0,0,1.30
2013-10-5,68,61,56,62,57,55,100,89,67,30.03,29.96,6,1,0,0.01
2013-10-6,60,59,58,60,57,54,99,94,87,30.12,30.03,6,1,0,0.04
2013-10-7,75,69,59,71,67,59,100,94,81,30.03,29.76,7,2,0,0.08
2013-10-8,67,58,46,60,47,41,98,71,39,30.27,29.82,9,1,0,0.00
2013-10-9,62,52,43,47,44,42,99,78,53,30.36,30.26,8,2,0,0.00
2013-10-10,63,55,44,56,51,43,99,87,72,30.26,30.07,9,2,0,0.00
2013-10-11,66,58,49,56,53,48,98,85,64,30.06,30.00,10,2,0,0.00
2013-10-12,62,56,49,58,53,48,99,88,79,30.28,30.04,9,2,0,0.00
2013-10-13,59,52,38,49,46,37,97,80,63,30.34,30.26,8,2,0,0.00
2013-10-14,64,48,32,48,41,31,100,81,43,30.32,30.17,2,0,0,0.00
2013-10-15,70,54,40,52,46,40,100,79,42,30.19,30.09,6,1,0,0.00
2013-10-16,63,54,41,58,52,41,100,94,79,30.09,29.83,8,1,0,0.00
2013-10-17,70,61,54,61,58,54,100,91,71,29.83,29.66,4,0,0,0.00
2013-10-18,70,62,45,63,52,43,99,74,42,29.83,29.54,7,1,0,0.00
2013-10-19,66,53,38,49,43,38,98,74,37,29.90,29.68,4,0,0,0.00
2013-10-20,64,53,38,54,41,31,100,68,30,29.94,29.62,5,1,0,0.00
2013-10-21,68,50,32,45,38,31,96,70,33,30.03,29.93,2,0,0,0.00
2013-10-22,70,56,43,54,47,39,97,75,43,29.93,29.62,4,0,0,0.00
2013-10-23,52,44,35,42,38,34,97,80,51,29.71,29.51,1,0,0,0.00
2013-10-24,54,42,34,40,30,24,97,67,32,29.81,29.55,5,0,0,0.00
2013-10-25,53,39,28,35,28,26,94,69,43,30.08,29.81,4,0,0,0.00
2013-10-26,56,43,28,38,31,25,96,68,31,30.08,29.81,8,1,0,0.00
2013-10-27,58,47,34,44,35,29,98,67,40,29.98,29.74,6,0,0,0.00
2013-10-28,61,45,29,37,31,23,95,62,34,30.25,29.99,6,1,0,0.00
2013-10-29,52,39,28,34,28,21,94,67,31,30.34,30.25,5,1,0,0.00
2013-10-30,53,40,28,47,38,27,98,93,74,30.29,30.11,3,0,0,0.01
2013-10-31,63,50,34,61,48,34,100,93,77,30.16,29.76,7,1,0,0.00
2013-11-1,70,64,58,64,60,53,99,85,70,29.72,29.42,8,3,0,0.00
2013-11-2,68,57,51,53,48,42,96,75,39,29.63,29.50,4,0,0,0.00
2013-11-3,52,42,32,46,36,17,94,78,48,30.30,29.62,9,2,0,0.00
2013-11-4,44,34,24,27,22,18,92,64,45,30.62,30.30,12,2,0,0.00
2013-11-5,50,37,25,34,28,22,93,73,39,30.62,30.43,8,0,0,0.00
2013-11-6,60,48,34,52,42,31,99,81,51,30.43,29.98,6,1,0,0.00
2013-11-7,64,55,39,63,54,37,100,96,85,29.97,29.58,6,1,0,0.04
2013-11-8,50,39,29,38,30,21,98,72,43,30.02,29.74,8,1,0,0.00
2013-11-9,46,37,27,31,25,20,88,64,38,30.12,29.97,4,0,0,0.00
2013-11-10,55,45,39,48,39,30,99,79,57,29.96,29.64,6,0,0,0.02
2013-11-11,54,46,37,40,30,23,81,57,31,30.02,29.78,6,1,0,0.00
2013-11-12,50,37,28,41,28,15,96,70,52,30.09,29.80,8,2,0,0.08
2013-11-13,38,29,24,17,14,10,70,55,36,30.18,30.09,8,2,0,0.00
2013-11-14,52,40,25,28,21,14,68,49,27,30.11,29.96,6,1,0,0.00
2013-11-15,60,46,35,42,30,17,96,56,27,30.12,30.04,5,1,0,0.00
2013-11-16,61,45,32,41,35,30,94,70,36,30.23,30.11,3,0,0,0.00
2013-11-17,61,48,32,59,46,30,100,92,57,30.23,29.78,9,2,0,0.01
2013-11-18,66,58,46,64,52,35,100,80,48,29.76,29.46,7,1,0,0.18
2013-11-19,46,40,32,35,23,16,68,51,35,30.18,29.58,8,3,0,0.00
2013-11-20,42,31,22,18,14,8,77,52,27,30.52,30.19,6,1,0,0.00
2013-11-21,49,34,20,31,22,16,86,65,37,30.55,30.31,4,0,0,0.00
2013-11-22,51,45,38,51,43,31,100,94,76,30.30,29.73,0,0,0,0.06
2013-11-23,48,42,30,47,28,13,100,62,28,29.79,29.70,9,2,0,0.00
2013-11-24,30,25,20,17,3,-9,61,41,21,30.10,29.70,13,4,0,0.00
2013-11-25,33,25,15,20,2,-8,69,40,17,30.28,30.11,7,1,0,0.00
2013-11-26,44,38,29,45,27,17,100,66,41,30.24,29.94,6,1,0,0.09
2013-11-27,62,54,38,62,54,37,100,99,95,29.93,29.10,21,4,0,0.31
2013-11-28,37,31,21,36,18,6,95,61,34,30.36,29.39,12,2,0,0.00
2013-11-29,36,27,19,19,13,7,77,57,37,30.64,30.36,4,0,0,0.00
2013-11-30,36,27,16,25,14,8,74,61,39,30.68,30.36,6,1,0,0.00
2013-12-1,49,42,33,46,38,25,100,85,73,30.35,29.90,9,2,0,0.00
2013-12-2,41,39,38,41,38,36,100,97,91,29.90,29.82,3,0,0,0.00
2013-12-3,49,38,30,38,34,30,100,87,53,29.85,29.74,5,1,0,0.00
2013-12-4,45,34,26,36,29,26,100,83,50,30.11,29.86,4,0,0,0.00
2013-12-5,55,44,28,55,43,27,100,93,79,30.12,29.84,11,1,0,0.00
2013-12-6,57,50,38,57,50,37,100,97,86,30.03,29.78,5,1,0,0.01
2013-12-7,42,34,26,37,29,21,98,83,54,30.36,29.99,7,1,0,0.00
2013-12-8,32,28,20,23,17,14,90,66,49,30.50,30.36,4,0,0,0.00
2013-12-9,42,36,29,42,35,19,100,97,64,30.39,29.79,7,1,0,0.02
2013-12-10,34,30,24,34,30,22,100,100,95,29.93,29.74,5,0,0,0.00
2013-12-11,32,26,21,24,21,17,96,81,63,30.15,29.93,4,1,0,0.00
2013-12-12,27,20,11,18,9,1,89,67,35,30.19,30.01,8,1,0,0.00
2013-12-13,32,22,13,14,10,6,79,62,43,30.27,29.93,5,1,0,0.00
2013-12-14,30,20,14,30,11,-1,98,71,48,30.50,30.04,9,2,0,0.00
2013-12-15,40,31,24,40,30,21,100,95,83,30.01,29.25,16,2,0,0.23
2013-12-16,30,24,13,22,13,6,92,67,42,30.13,29.67,6,1,0,0.00
2013-12-17,30,18,5,30,14,1,98,86,70,30.19,29.82,5,1,0,0.00
2013-12-18,35,26,19,22,19,16,92,76,50,30.01,29.73,8,2,0,0.00
2013-12-19,44,33,22,29,24,18,84,69,52,30.04,29.88,7,1,0,0.00
2013-12-20,53,41,32,40,33,27,86,74,55,30.04,29.84,6,1,0,0.00
2013-12-21,60,51,45,52,47,39,99,86,66,29.90,29.80,5,1,0,0.00
2013-12-22,60,54,40,59,53,40,99,95,80,29.91,29.70,7,2,0,0.00
2013-12-23,41,39,35,41,39,35,100,100,99,29.98,29.86,7,1,0,0.11
2013-12-24,38,33,26,39,23,16,100,67,48,30.11,29.94,7,1,0,0.00
2013-12-25,27,20,14,20,6,-1,79,55,36,30.46,30.11,9,2,0,0.00
2013-12-26,39,29,17,37,26,11,98,86,74,30.42,29.97,13,2,0,0.00
2013-12-27,36,28,21,27,22,17,97,78,53,30.19,30.11,3,0,0,0.00
2013-12-28,49,35,24,30,25,20,90,69,42,30.15,29.91,6,1,0,0.00
2013-12-29,44,38,30,44,36,25,100,91,75,29.96,29.25,10,1,0,0.24
2013-12-30,40,33,22,39,26,11,100,79,50,30.05,29.39,6,1,0,0.07
2013-12-31,26,20,16,15,7,-5,84,57,38,30.10,29.95,7,1,0,0.00
2014-1-1,30,22,14,14,9,5,76,58,38,30.29,30.11,6,1,0,0.00
2014-1-2,29,26,21,27,23,12,96,90,63,30.27,29.64,13,5,0,0.00